sensor_id;sensor_type;location;lat;lon;timestamp;P1;durP1;ratioP1;P2;durP2;ratioP2
22606;SDS011;11470;20.968;105.834;2022-08-03T00:01:03;29.25;;;18.48;;
22606;SDS011;11470;20.968;105.834;2022-08-03T00:06:10;31.17;;;17.05;;
22606;SDS011;11470;20.968;105.834;2022-08-03T00:11:17;31.05;;;16.35;;
22606;SDS011;11470;20.968;105.834;2022-08-03T00:16:23;22.13;;;15.63;;
22606;SDS011;11470;20.968;105.834;2022-08-03T00:21:30;18.63;;;14.23;;
22606;SDS011;11470;20.968;105.834;2022-08-03T00:26:36;18.13;;;13.90;;
22606;SDS011;11470;20.968;105.834;2022-08-03T00:31:43;20.70;;;14.57;;
22606;SDS011;11470;20.968;105.834;2022-08-03T00:37:01;20.27;;;14.35;;
22606;SDS011;11470;20.968;105.834;2022-08-03T00:42:07;20.52;;;15.52;;
22606;SDS011;11470;20.968;105.834;2022-08-03T00:47:14;16.58;;;12.52;;
22606;SDS011;11470;20.968;105.834;2022-08-03T00:52:20;20.45;;;12.70;;
22606;SDS011;11470;20.968;105.834;2022-08-03T00:57:27;20.25;;;11.23;;
22606;SDS011;11470;20.968;105.834;2022-08-03T01:02:38;23.90;;;17.85;;
22606;SDS011;11470;20.968;105.834;2022-08-03T01:13:16;16.42;;;11.88;;
22606;SDS011;11470;20.968;105.834;2022-08-03T01:29:58;10.68;;;8.43;;
22606;SDS011;11470;20.968;105.834;2022-08-03T01:35:09;9.63;;;7.70;;
22606;SDS011;11470;20.968;105.834;2022-08-03T01:40:26;10.90;;;8.18;;
22606;SDS011;11470;20.968;105.834;2022-08-03T01:45:34;9.13;;;6.85;;
22606;SDS011;11470;20.968;105.834;2022-08-03T01:50:42;13.65;;;8.60;;
22606;SDS011;11470;20.968;105.834;2022-08-03T01:55:53;11.15;;;7.22;;
22606;SDS011;11470;20.968;105.834;2022-08-03T02:01:01;7.97;;;6.55;;
22606;SDS011;11470;20.968;105.834;2022-08-03T02:06:10;11.93;;;8.00;;
22606;SDS011;11470;20.968;105.834;2022-08-03T02:11:37;8.60;;;7.18;;
22606;SDS011;11470;20.968;105.834;2022-08-03T02:16:44;9.35;;;7.55;;
22606;SDS011;11470;20.968;105.834;2022-08-03T02:21:53;8.95;;;7.00;;
22606;SDS011;11470;20.968;105.834;2022-08-03T02:27:04;9.50;;;7.50;;
22606;SDS011;11470;20.968;105.834;2022-08-03T02:32:28;6.78;;;5.55;;
22606;SDS011;11470;20.968;105.834;2022-08-03T02:37:48;10.20;;;7.38;;
22606;SDS011;11470;20.968;105.834;2022-08-03T02:43:01;11.05;;;8.32;;
22606;SDS011;11470;20.968;105.834;2022-08-03T02:53:21;8.15;;;7.30;;
22606;SDS011;11470;20.968;105.834;2022-08-03T02:58:30;9.43;;;7.57;;
22606;SDS011;11470;20.968;105.834;2022-08-03T03:03:37;9.23;;;6.28;;
22606;SDS011;11470;20.968;105.834;2022-08-03T03:08:46;8.27;;;7.35;;
22606;SDS011;11470;20.968;105.834;2022-08-03T03:13:52;8.05;;;6.25;;
22606;SDS011;11470;20.968;105.834;2022-08-03T03:19:02;10.38;;;8.13;;
22606;SDS011;11470;20.968;105.834;2022-08-03T03:24:08;4.35;;;3.47;;
22606;SDS011;11470;20.968;105.834;2022-08-03T03:29:15;9.13;;;6.72;;
22606;SDS011;11470;20.968;105.834;2022-08-03T03:34:22;6.57;;;5.60;;
22606;SDS011;11470;20.968;105.834;2022-08-03T03:39:30;8.50;;;6.95;;
22606;SDS011;11470;20.968;105.834;2022-08-03T03:44:36;8.38;;;7.18;;
22606;SDS011;11470;20.968;105.834;2022-08-03T03:49:43;8.82;;;7.20;;
22606;SDS011;11470;20.968;105.834;2022-08-03T03:54:52;15.20;;;10.00;;
22606;SDS011;11470;20.968;105.834;2022-08-03T04:00:03;8.85;;;5.03;;
22606;SDS011;11470;20.968;105.834;2022-08-03T04:05:11;12.07;;;7.60;;
22606;SDS011;11470;20.968;105.834;2022-08-03T04:10:37;9.32;;;7.68;;
22606;SDS011;11470;20.968;105.834;2022-08-03T04:16:04;8.55;;;7.68;;
22606;SDS011;11470;20.968;105.834;2022-08-03T04:21:14;8.15;;;5.32;;
22606;SDS011;11470;20.968;105.834;2022-08-03T04:26:23;10.75;;;8.90;;
22606;SDS011;11470;20.968;105.834;2022-08-03T04:31:34;9.20;;;6.60;;
22606;SDS011;11470;20.968;105.834;2022-08-03T04:36:47;12.00;;;8.57;;
22606;SDS011;11470;20.968;105.834;2022-08-03T04:42:01;12.32;;;9.73;;
22606;SDS011;11470;20.968;105.834;2022-08-03T04:47:11;11.40;;;8.30;;
22606;SDS011;11470;20.968;105.834;2022-08-03T04:52:18;8.90;;;7.05;;
22606;SDS011;11470;20.968;105.834;2022-08-03T04:57:24;13.07;;;10.60;;
22606;SDS011;11470;20.968;105.834;2022-08-03T05:02:30;16.42;;;12.52;;
22606;SDS011;11470;20.968;105.834;2022-08-03T05:07:38;15.75;;;12.55;;
22606;SDS011;11470;20.968;105.834;2022-08-03T05:12:46;14.30;;;10.18;;
22606;SDS011;11470;20.968;105.834;2022-08-03T05:17:55;17.33;;;12.63;;
22606;SDS011;11470;20.968;105.834;2022-08-03T05:23:01;14.98;;;12.07;;
22606;SDS011;11470;20.968;105.834;2022-08-03T05:28:07;14.13;;;12.63;;
22606;SDS011;11470;20.968;105.834;2022-08-03T05:33:14;12.70;;;10.07;;
22606;SDS011;11470;20.968;105.834;2022-08-03T05:38:20;14.27;;;12.77;;
22606;SDS011;11470;20.968;105.834;2022-08-03T05:48:41;19.07;;;15.50;;
22606;SDS011;11470;20.968;105.834;2022-08-03T05:53:47;15.57;;;13.40;;
22606;SDS011;11470;20.968;105.834;2022-08-03T05:58:55;27.25;;;19.35;;
22606;SDS011;11470;20.968;105.834;2022-08-03T06:04:21;21.65;;;18.17;;
22606;SDS011;11470;20.968;105.834;2022-08-03T06:09:28;21.88;;;18.88;;
22606;SDS011;11470;20.968;105.834;2022-08-03T06:14:54;20.27;;;17.35;;
22606;SDS011;11470;20.968;105.834;2022-08-03T06:20:00;20.52;;;17.70;;
22606;SDS011;11470;20.968;105.834;2022-08-03T06:25:06;23.70;;;20.90;;
22606;SDS011;11470;20.968;105.834;2022-08-03T06:30:16;21.67;;;18.00;;
22606;SDS011;11470;20.968;105.834;2022-08-03T06:35:23;19.73;;;15.20;;
22606;SDS011;11470;20.968;105.834;2022-08-03T06:40:33;21.42;;;16.55;;
22606;SDS011;11470;20.968;105.834;2022-08-03T06:45:43;19.40;;;16.90;;
22606;SDS011;11470;20.968;105.834;2022-08-03T06:50:50;20.63;;;16.23;;
22606;SDS011;11470;20.968;105.834;2022-08-03T06:55:57;17.88;;;15.23;;
22606;SDS011;11470;20.968;105.834;2022-08-03T07:01:03;17.08;;;14.52;;
22606;SDS011;11470;20.968;105.834;2022-08-03T07:06:10;20.38;;;15.15;;
22606;SDS011;11470;20.968;105.834;2022-08-03T07:11:17;20.65;;;15.38;;
22606;SDS011;11470;20.968;105.834;2022-08-03T07:16:26;17.42;;;14.63;;
22606;SDS011;11470;20.968;105.834;2022-08-03T07:21:33;16.75;;;13.75;;
22606;SDS011;11470;20.968;105.834;2022-08-03T07:26:38;17.88;;;15.10;;
22606;SDS011;11470;20.968;105.834;2022-08-03T07:31:47;18.10;;;15.60;;
22606;SDS011;11470;20.968;105.834;2022-08-03T07:36:53;16.70;;;14.68;;
22606;SDS011;11470;20.968;105.834;2022-08-03T07:42:00;16.23;;;14.48;;
22606;SDS011;11470;20.968;105.834;2022-08-03T07:47:06;17.27;;;12.50;;
22606;SDS011;11470;20.968;105.834;2022-08-03T07:52:24;17.25;;;12.45;;
22606;SDS011;11470;20.968;105.834;2022-08-03T07:58:02;14.13;;;12.63;;
22606;SDS011;11470;20.968;105.834;2022-08-03T08:03:13;19.08;;;12.77;;
22606;SDS011;11470;20.968;105.834;2022-08-03T08:08:19;16.38;;;13.10;;
22606;SDS011;11470;20.968;105.834;2022-08-03T08:13:29;14.35;;;11.98;;
22606;SDS011;11470;20.968;105.834;2022-08-03T08:18:36;16.50;;;12.02;;
22606;SDS011;11470;20.968;105.834;2022-08-03T08:23:43;20.33;;;14.10;;
22606;SDS011;11470;20.968;105.834;2022-08-03T08:28:58;20.08;;;13.95;;
22606;SDS011;11470;20.968;105.834;2022-08-03T08:34:05;22.70;;;17.42;;
22606;SDS011;11470;20.968;105.834;2022-08-03T08:39:12;17.95;;;15.73;;
22606;SDS011;11470;20.968;105.834;2022-08-03T08:44:21;23.00;;;15.75;;
22606;SDS011;11470;20.968;105.834;2022-08-03T08:49:27;18.70;;;14.38;;
22606;SDS011;11470;20.968;105.834;2022-08-03T08:54:36;18.73;;;15.98;;
22606;SDS011;11470;20.968;105.834;2022-08-03T08:59:46;18.63;;;15.75;;
22606;SDS011;11470;20.968;105.834;2022-08-03T09:04:57;17.75;;;15.73;;
22606;SDS011;11470;20.968;105.834;2022-08-03T09:10:10;18.60;;;15.35;;
22606;SDS011;11470;20.968;105.834;2022-08-03T09:20:28;18.80;;;15.40;;
22606;SDS011;11470;20.968;105.834;2022-08-03T09:25:38;18.55;;;15.65;;
22606;SDS011;11470;20.968;105.834;2022-08-03T09:30:56;18.52;;;16.08;;
22606;SDS011;11470;20.968;105.834;2022-08-03T09:36:03;19.50;;;16.67;;
22606;SDS011;11470;20.968;105.834;2022-08-03T09:41:16;23.75;;;18.52;;
22606;SDS011;11470;20.968;105.834;2022-08-03T09:46:23;21.00;;;18.42;;
22606;SDS011;11470;20.968;105.834;2022-08-03T09:51:29;21.75;;;19.45;;
22606;SDS011;11470;20.968;105.834;2022-08-03T09:56:55;25.60;;;18.67;;
22606;SDS011;11470;20.968;105.834;2022-08-03T10:02:03;23.17;;;18.30;;
22606;SDS011;11470;20.968;105.834;2022-08-03T10:07:09;25.25;;;18.35;;
22606;SDS011;11470;20.968;105.834;2022-08-03T10:12:17;22.70;;;17.25;;
22606;SDS011;11470;20.968;105.834;2022-08-03T10:17:23;25.20;;;18.13;;
22606;SDS011;11470;20.968;105.834;2022-08-03T10:22:33;20.05;;;17.73;;
22606;SDS011;11470;20.968;105.834;2022-08-03T10:27:40;21.75;;;17.50;;
22606;SDS011;11470;20.968;105.834;2022-08-03T10:33:02;30.17;;;19.42;;
22606;SDS011;11470;20.968;105.834;2022-08-03T10:38:36;28.05;;;20.90;;
22606;SDS011;11470;20.968;105.834;2022-08-03T10:44:04;27.25;;;19.38;;
22606;SDS011;11470;20.968;105.834;2022-08-03T10:49:20;28.17;;;21.45;;
22606;SDS011;11470;20.968;105.834;2022-08-03T10:54:37;23.67;;;20.05;;
22606;SDS011;11470;20.968;105.834;2022-08-03T11:00:13;30.80;;;21.02;;
22606;SDS011;11470;20.968;105.834;2022-08-03T11:05:29;28.52;;;24.35;;
22606;SDS011;11470;20.968;105.834;2022-08-03T11:10:38;33.00;;;23.58;;
22606;SDS011;11470;20.968;105.834;2022-08-03T11:15:45;32.97;;;23.85;;
22606;SDS011;11470;20.968;105.834;2022-08-03T11:20:53;32.97;;;25.58;;
22606;SDS011;11470;20.968;105.834;2022-08-03T11:26:08;32.95;;;24.70;;
22606;SDS011;11470;20.968;105.834;2022-08-03T11:42:38;36.30;;;27.20;;
22606;SDS011;11470;20.968;105.834;2022-08-03T11:47:44;39.20;;;28.10;;
22606;SDS011;11470;20.968;105.834;2022-08-03T11:52:53;39.03;;;30.15;;
22606;SDS011;11470;20.968;105.834;2022-08-03T11:58:00;47.22;;;31.88;;
22606;SDS011;11470;20.968;105.834;2022-08-03T12:03:30;41.50;;;31.10;;
22606;SDS011;11470;20.968;105.834;2022-08-03T12:08:39;46.20;;;34.28;;
22606;SDS011;11470;20.968;105.834;2022-08-03T12:13:48;47.05;;;34.38;;
22606;SDS011;11470;20.968;105.834;2022-08-03T12:19:14;55.30;;;36.40;;
22606;SDS011;11470;20.968;105.834;2022-08-03T12:24:21;51.88;;;36.05;;
22606;SDS011;11470;20.968;105.834;2022-08-03T12:29:28;44.38;;;32.50;;
22606;SDS011;11470;20.968;105.834;2022-08-03T12:34:47;53.35;;;35.08;;
22606;SDS011;11470;20.968;105.834;2022-08-03T12:39:55;41.97;;;31.52;;
22606;SDS011;11470;20.968;105.834;2022-08-03T12:45:19;41.70;;;30.00;;
22606;SDS011;11470;20.968;105.834;2022-08-03T12:50:28;41.20;;;28.47;;
22606;SDS011;11470;20.968;105.834;2022-08-03T12:55:36;41.75;;;28.20;;
22606;SDS011;11470;20.968;105.834;2022-08-03T13:01:03;37.38;;;26.92;;
22606;SDS011;11470;20.968;105.834;2022-08-03T13:06:24;27.67;;;19.42;;
22606;SDS011;11470;20.968;105.834;2022-08-03T13:11:31;37.05;;;25.27;;
22606;SDS011;11470;20.968;105.834;2022-08-03T13:16:58;35.72;;;27.50;;
22606;SDS011;11470;20.968;105.834;2022-08-03T13:22:20;40.92;;;25.85;;
22606;SDS011;11470;20.968;105.834;2022-08-03T13:27:29;36.25;;;25.75;;
22606;SDS011;11470;20.968;105.834;2022-08-03T13:32:55;41.72;;;24.58;;
22606;SDS011;11470;20.968;105.834;2022-08-03T13:38:03;42.13;;;26.23;;
22606;SDS011;11470;20.968;105.834;2022-08-03T13:43:10;36.00;;;24.92;;
22606;SDS011;11470;20.968;105.834;2022-08-03T13:48:16;29.00;;;22.60;;
22606;SDS011;11470;20.968;105.834;2022-08-03T13:53:40;25.17;;;19.45;;
22606;SDS011;11470;20.968;105.834;2022-08-03T13:58:47;23.83;;;16.10;;
22606;SDS011;11470;20.968;105.834;2022-08-03T14:03:53;15.45;;;10.02;;
22606;SDS011;11470;20.968;105.834;2022-08-03T14:09:00;22.05;;;14.85;;
22606;SDS011;11470;20.968;105.834;2022-08-03T14:14:06;13.75;;;11.77;;
22606;SDS011;11470;20.968;105.834;2022-08-03T14:19:12;16.08;;;8.65;;
22606;SDS011;11470;20.968;105.834;2022-08-03T14:24:26;19.10;;;9.48;;
22606;SDS011;11470;20.968;105.834;2022-08-03T14:29:33;19.50;;;12.65;;
22606;SDS011;11470;20.968;105.834;2022-08-03T14:34:42;14.32;;;11.18;;
22606;SDS011;11470;20.968;105.834;2022-08-03T14:39:49;18.13;;;12.10;;
22606;SDS011;11470;20.968;105.834;2022-08-03T14:45:03;17.02;;;10.73;;
22606;SDS011;11470;20.968;105.834;2022-08-03T14:50:21;13.68;;;8.85;;
22606;SDS011;11470;20.968;105.834;2022-08-03T14:55:45;14.68;;;8.57;;
22606;SDS011;11470;20.968;105.834;2022-08-03T15:00:56;15.82;;;9.18;;
22606;SDS011;11470;20.968;105.834;2022-08-03T15:06:02;14.63;;;6.97;;
22606;SDS011;11470;20.968;105.834;2022-08-03T15:11:09;12.85;;;9.02;;
22606;SDS011;11470;20.968;105.834;2022-08-03T15:16:18;13.68;;;10.60;;
22606;SDS011;11470;20.968;105.834;2022-08-03T15:21:32;10.05;;;5.97;;
22606;SDS011;11470;20.968;105.834;2022-08-03T15:26:49;13.10;;;9.43;;
22606;SDS011;11470;20.968;105.834;2022-08-03T15:31:56;12.63;;;8.38;;
22606;SDS011;11470;20.968;105.834;2022-08-03T15:37:04;10.27;;;7.35;;
22606;SDS011;11470;20.968;105.834;2022-08-03T15:42:25;14.02;;;8.05;;
22606;SDS011;11470;20.968;105.834;2022-08-03T15:47:32;11.73;;;8.35;;
22606;SDS011;11470;20.968;105.834;2022-08-03T15:52:38;11.63;;;7.03;;
22606;SDS011;11470;20.968;105.834;2022-08-03T15:57:44;11.65;;;8.20;;
22606;SDS011;11470;20.968;105.834;2022-08-03T16:03:11;12.38;;;8.50;;
22606;SDS011;11470;20.968;105.834;2022-08-03T16:08:19;11.45;;;7.90;;
22606;SDS011;11470;20.968;105.834;2022-08-03T16:13:26;16.13;;;9.13;;
22606;SDS011;11470;20.968;105.834;2022-08-03T16:18:52;13.57;;;10.00;;
22606;SDS011;11470;20.968;105.834;2022-08-03T16:23:59;13.50;;;9.07;;
22606;SDS011;11470;20.968;105.834;2022-08-03T16:29:13;14.80;;;10.07;;
22606;SDS011;11470;20.968;105.834;2022-08-03T16:34:25;16.10;;;9.40;;
22606;SDS011;11470;20.968;105.834;2022-08-03T16:39:31;17.33;;;10.18;;
22606;SDS011;11470;20.968;105.834;2022-08-03T16:44:38;12.88;;;10.27;;
22606;SDS011;11470;20.968;105.834;2022-08-03T16:49:44;21.05;;;9.18;;
22606;SDS011;11470;20.968;105.834;2022-08-03T16:54:57;15.18;;;8.60;;
22606;SDS011;11470;20.968;105.834;2022-08-03T17:00:08;15.65;;;10.57;;
22606;SDS011;11470;20.968;105.834;2022-08-03T17:05:35;15.60;;;9.65;;
22606;SDS011;11470;20.968;105.834;2022-08-03T17:10:49;15.05;;;9.60;;
22606;SDS011;11470;20.968;105.834;2022-08-03T17:15:56;17.55;;;10.25;;
22606;SDS011;11470;20.968;105.834;2022-08-03T17:21:05;17.73;;;8.93;;
22606;SDS011;11470;20.968;105.834;2022-08-03T17:26:13;15.73;;;10.00;;
22606;SDS011;11470;20.968;105.834;2022-08-03T17:31:24;20.85;;;9.70;;
22606;SDS011;11470;20.968;105.834;2022-08-03T17:36:37;14.25;;;9.10;;
22606;SDS011;11470;20.968;105.834;2022-08-03T17:42:05;19.77;;;10.32;;
22606;SDS011;11470;20.968;105.834;2022-08-03T17:47:33;18.02;;;9.80;;
22606;SDS011;11470;20.968;105.834;2022-08-03T17:52:45;15.55;;;9.35;;
22606;SDS011;11470;20.968;105.834;2022-08-03T17:57:56;20.45;;;10.23;;
22606;SDS011;11470;20.968;105.834;2022-08-03T18:18:59;10.02;;;7.57;;
22606;SDS011;11470;20.968;105.834;2022-08-03T18:24:18;13.57;;;7.93;;
22606;SDS011;11470;20.968;105.834;2022-08-03T18:29:26;14.93;;;7.78;;
22606;SDS011;11470;20.968;105.834;2022-08-03T18:34:36;10.95;;;7.20;;
22606;SDS011;11470;20.968;105.834;2022-08-03T18:39:55;11.52;;;7.88;;
22606;SDS011;11470;20.968;105.834;2022-08-03T18:45:02;13.23;;;8.55;;
22606;SDS011;11470;20.968;105.834;2022-08-03T18:55:51;11.50;;;7.30;;
22606;SDS011;11470;20.968;105.834;2022-08-03T19:06:41;9.32;;;7.18;;
22606;SDS011;11470;20.968;105.834;2022-08-03T19:11:52;9.48;;;7.90;;
22606;SDS011;11470;20.968;105.834;2022-08-03T19:17:21;10.07;;;7.38;;
22606;SDS011;11470;20.968;105.834;2022-08-03T19:22:31;11.95;;;7.88;;
22606;SDS011;11470;20.968;105.834;2022-08-03T19:27:38;12.65;;;7.65;;
22606;SDS011;11470;20.968;105.834;2022-08-03T19:32:45;14.30;;;7.90;;
22606;SDS011;11470;20.968;105.834;2022-08-03T19:37:54;10.05;;;7.07;;
22606;SDS011;11470;20.968;105.834;2022-08-03T19:43:04;10.75;;;7.47;;
22606;SDS011;11470;20.968;105.834;2022-08-03T19:53:27;10.80;;;7.13;;
22606;SDS011;11470;20.968;105.834;2022-08-03T19:58:44;15.07;;;7.78;;
22606;SDS011;11470;20.968;105.834;2022-08-03T20:03:54;13.75;;;7.85;;
22606;SDS011;11470;20.968;105.834;2022-08-03T20:09:01;10.38;;;7.88;;
22606;SDS011;11470;20.968;105.834;2022-08-03T20:14:08;13.23;;;8.23;;
22606;SDS011;11470;20.968;105.834;2022-08-03T20:19:28;10.73;;;7.72;;
22606;SDS011;11470;20.968;105.834;2022-08-03T20:24:39;9.43;;;7.55;;
22606;SDS011;11470;20.968;105.834;2022-08-03T20:29:53;12.05;;;7.32;;
22606;SDS011;11470;20.968;105.834;2022-08-03T20:35:09;14.05;;;7.63;;
22606;SDS011;11470;20.968;105.834;2022-08-03T20:40:15;11.75;;;7.38;;
22606;SDS011;11470;20.968;105.834;2022-08-03T20:45:21;11.27;;;7.30;;
22606;SDS011;11470;20.968;105.834;2022-08-03T20:50:47;10.90;;;8.38;;
22606;SDS011;11470;20.968;105.834;2022-08-03T20:55:53;13.48;;;8.80;;
22606;SDS011;11470;20.968;105.834;2022-08-03T21:01:04;15.45;;;9.35;;
22606;SDS011;11470;20.968;105.834;2022-08-03T21:06:11;11.15;;;8.70;;
22606;SDS011;11470;20.968;105.834;2022-08-03T21:11:32;14.93;;;10.63;;
22606;SDS011;11470;20.968;105.834;2022-08-03T21:16:48;19.20;;;12.05;;
22606;SDS011;11470;20.968;105.834;2022-08-03T21:21:57;18.65;;;11.13;;
22606;SDS011;11470;20.968;105.834;2022-08-03T21:27:03;16.70;;;10.75;;
22606;SDS011;11470;20.968;105.834;2022-08-03T21:32:09;19.05;;;11.35;;
22606;SDS011;11470;20.968;105.834;2022-08-03T21:37:34;20.00;;;12.27;;
22606;SDS011;11470;20.968;105.834;2022-08-03T21:42:41;16.50;;;11.68;;
22606;SDS011;11470;20.968;105.834;2022-08-03T21:47:48;22.33;;;12.55;;
22606;SDS011;11470;20.968;105.834;2022-08-03T21:52:54;25.70;;;13.02;;
22606;SDS011;11470;20.968;105.834;2022-08-03T21:58:02;25.95;;;15.00;;
22606;SDS011;11470;20.968;105.834;2022-08-03T22:03:09;24.30;;;16.85;;
22606;SDS011;11470;20.968;105.834;2022-08-03T22:08:20;21.42;;;15.40;;
22606;SDS011;11470;20.968;105.834;2022-08-03T22:19:19;25.42;;;14.38;;
22606;SDS011;11470;20.968;105.834;2022-08-03T22:24:25;25.25;;;15.38;;
22606;SDS011;11470;20.968;105.834;2022-08-03T22:29:36;24.83;;;14.18;;
22606;SDS011;11470;20.968;105.834;2022-08-03T22:34:45;26.02;;;15.63;;
22606;SDS011;11470;20.968;105.834;2022-08-03T22:39:53;22.83;;;16.60;;
22606;SDS011;11470;20.968;105.834;2022-08-03T22:45:00;22.15;;;14.52;;
22606;SDS011;11470;20.968;105.834;2022-08-03T22:50:10;24.17;;;14.95;;
22606;SDS011;11470;20.968;105.834;2022-08-03T22:55:35;23.80;;;15.32;;
22606;SDS011;11470;20.968;105.834;2022-08-03T23:00:46;31.08;;;16.83;;
22606;SDS011;11470;20.968;105.834;2022-08-03T23:05:58;26.77;;;17.42;;
22606;SDS011;11470;20.968;105.834;2022-08-03T23:11:06;23.13;;;17.08;;
22606;SDS011;11470;20.968;105.834;2022-08-03T23:16:12;26.25;;;15.93;;
22606;SDS011;11470;20.968;105.834;2022-08-03T23:21:31;26.00;;;16.15;;
22606;SDS011;11470;20.968;105.834;2022-08-03T23:26:58;24.02;;;15.60;;
22606;SDS011;11470;20.968;105.834;2022-08-03T23:32:09;21.45;;;16.08;;
22606;SDS011;11470;20.968;105.834;2022-08-03T23:37:17;31.17;;;17.58;;
22606;SDS011;11470;20.968;105.834;2022-08-03T23:42:24;23.35;;;15.73;;
22606;SDS011;11470;20.968;105.834;2022-08-03T23:47:30;27.27;;;18.60;;
22606;SDS011;11470;20.968;105.834;2022-08-03T23:52:55;23.35;;;17.10;;
